createdAt,value
2019-03-04T00:01:43.141Z,2.10
2019-03-04T00:04:10.941Z,2.40
2019-03-04T00:06:38.302Z,2.37
2019-03-04T00:09:05.926Z,2.43
2019-03-04T00:11:35.447Z,2.13
2019-03-04T00:14:02.913Z,2.70
2019-03-04T00:16:32.334Z,2.30
2019-03-04T00:19:01.398Z,2.00
2019-03-04T00:21:28.983Z,2.00
2019-03-04T00:23:56.385Z,2.47
2019-03-04T00:26:23.652Z,2.87
2019-03-04T00:28:51.003Z,2.53
2019-03-04T00:31:18.270Z,2.30
2019-03-04T00:33:45.620Z,2.43
2019-03-04T00:36:13.019Z,2.50
2019-03-04T00:38:40.225Z,2.87
2019-03-04T00:41:07.725Z,2.67
2019-03-04T00:43:35.479Z,1.97
2019-03-04T00:46:02.884Z,1.63
2019-03-04T00:48:30.142Z,1.53
2019-03-04T00:50:57.493Z,1.83
2019-03-04T00:53:24.919Z,1.70
2019-03-04T00:55:52.542Z,1.63
2019-03-04T00:58:19.928Z,1.80
2019-03-04T01:00:47.653Z,1.70
2019-03-04T01:03:15.030Z,1.50
2019-03-04T01:05:42.470Z,1.60
2019-03-04T01:08:10.833Z,1.80
2019-03-04T01:10:39.896Z,1.60
2019-03-04T01:13:07.667Z,1.90
2019-03-04T01:15:36.059Z,1.50
2019-03-04T01:18:03.315Z,1.40
2019-03-04T01:20:31.031Z,2.40
2019-03-04T01:22:58.502Z,1.83
2019-03-04T01:25:25.932Z,1.60
2019-03-04T01:27:53.293Z,1.70
2019-03-04T01:30:21.779Z,1.70
2019-03-04T01:32:49.800Z,1.57
2019-03-04T01:35:17.145Z,1.70
2019-03-04T01:37:44.409Z,1.87
2019-03-04T01:40:19.355Z,1.83
2019-03-04T01:42:46.718Z,1.83
2019-03-04T01:45:14.760Z,2.03
2019-03-04T01:47:41.983Z,2.37
2019-03-04T01:50:11.267Z,2.10
2019-03-04T01:52:38.868Z,2.03
2019-03-04T01:55:07.705Z,1.93
2019-03-04T01:57:34.956Z,2.00
2019-03-04T02:00:02.283Z,1.80
2019-03-04T02:02:31.096Z,2.13
2019-03-04T02:04:58.349Z,1.63
2019-03-04T02:07:27.111Z,1.40
2019-03-04T02:09:54.386Z,1.57
2019-03-04T02:12:22.233Z,1.63
2019-03-04T02:14:49.621Z,1.60
2019-03-04T02:17:16.811Z,1.50
2019-03-04T02:19:44.021Z,1.17
2019-03-04T02:22:11.393Z,1.40
2019-03-04T02:24:38.710Z,1.30
2019-03-04T02:27:05.993Z,1.00
2019-03-04T02:29:33.504Z,1.10
2019-03-04T02:32:00.905Z,1.40
2019-03-04T02:34:29.231Z,1.27
2019-03-04T02:36:56.573Z,1.10
2019-03-04T02:39:23.933Z,1.13
2019-03-04T02:41:51.524Z,1.10
2019-03-04T02:44:18.650Z,1.17
2019-03-04T02:46:45.869Z,1.20
2019-03-04T02:49:13.159Z,1.70
2019-03-04T02:51:40.865Z,1.30
2019-03-04T02:54:08.268Z,1.30
2019-03-04T02:56:35.736Z,1.20
2019-03-04T02:59:03.213Z,1.30
2019-03-04T03:01:30.775Z,1.70
2019-03-04T03:03:58.532Z,1.60
2019-03-04T03:06:25.922Z,2.00
2019-03-04T03:08:53.272Z,1.90
2019-03-04T03:11:20.661Z,1.20
2019-03-04T03:13:48.241Z,1.80
2019-03-04T03:16:15.744Z,1.40
2019-03-04T03:18:43.656Z,1.53
2019-03-04T03:21:10.936Z,1.90
2019-03-04T03:23:38.272Z,1.50
2019-03-04T03:26:05.665Z,2.13
2019-03-04T03:28:32.912Z,1.90
2019-03-04T03:31:00.340Z,2.47
2019-03-04T03:33:27.715Z,2.00
2019-03-04T03:35:55.023Z,1.90
2019-03-04T03:38:22.438Z,2.10
2019-03-04T03:40:50.898Z,2.23
2019-03-04T03:43:18.322Z,2.30
2019-03-04T03:45:45.424Z,2.20
2019-03-04T03:48:12.880Z,1.53
2019-03-04T03:50:40.194Z,1.73
2019-03-04T03:53:07.476Z,1.43
2019-03-04T03:55:35.005Z,1.53
2019-03-04T03:58:02.569Z,1.60
2019-03-04T04:00:30.890Z,2.13
2019-03-04T04:02:58.291Z,1.73
2019-03-04T04:05:25.873Z,1.67
2019-03-04T04:07:53.095Z,1.93
2019-03-04T04:10:20.452Z,1.67
2019-03-04T04:12:47.813Z,1.50
2019-03-04T04:15:15.514Z,1.83
2019-03-04T04:17:43.351Z,1.53
2019-03-04T04:20:11.078Z,1.90
2019-03-04T04:22:38.577Z,1.87
2019-03-04T04:25:06.677Z,1.67
2019-03-04T04:27:34.037Z,2.03
2019-03-04T04:30:01.664Z,1.73
2019-03-04T04:32:29.490Z,2.00
2019-03-04T04:34:56.772Z,2.33
2019-03-04T04:37:24.162Z,2.23
2019-03-04T04:39:51.480Z,1.67
2019-03-04T04:42:20.445Z,1.60
2019-03-04T04:44:47.729Z,1.17
2019-03-04T04:47:16.216Z,0.90
2019-03-04T04:49:43.450Z,0.90
2019-03-04T04:52:10.834Z,1.43
2019-03-04T04:54:38.229Z,1.30
2019-03-04T04:57:05.813Z,1.00
2019-03-04T04:59:33.395Z,1.27
2019-03-04T05:02:01.750Z,1.30
2019-03-04T05:04:29.527Z,1.23
2019-03-04T05:06:57.254Z,1.57
2019-03-04T05:09:24.644Z,1.43
2019-03-04T05:11:52.174Z,1.13
2019-03-04T05:14:19.400Z,1.47
2019-03-04T05:16:46.779Z,1.43
2019-03-04T05:19:14.165Z,1.20
2019-03-04T05:21:41.537Z,1.30
2019-03-04T05:24:08.764Z,1.60
2019-03-04T05:26:36.152Z,1.40
2019-03-04T05:29:03.357Z,1.40
2019-03-04T05:31:30.768Z,1.50
2019-03-04T05:33:57.968Z,1.47
2019-03-04T05:36:25.239Z,1.63
2019-03-04T05:38:52.557Z,1.40
2019-03-04T05:41:20.035Z,1.77
2019-03-04T05:43:48.497Z,1.70
2019-03-04T05:46:16.954Z,1.70
2019-03-04T05:48:44.222Z,1.20
2019-03-04T05:51:11.599Z,1.37
2019-03-04T05:53:38.713Z,1.30
2019-03-04T05:56:06.097Z,1.47
2019-03-04T05:58:33.401Z,1.30
2019-03-04T06:01:18.401Z,1.07
2019-03-04T06:03:47.181Z,1.30
2019-03-04T06:06:15.313Z,1.30
2019-03-04T06:08:44.473Z,1.97
2019-03-04T06:11:12.259Z,1.53
2019-03-04T06:13:39.615Z,1.30
2019-03-04T06:16:06.874Z,1.50
2019-03-04T06:18:34.126Z,1.53
2019-03-04T06:21:01.501Z,1.07
2019-03-04T06:23:28.927Z,1.53
2019-03-04T06:25:57.580Z,1.73
2019-03-04T06:28:25.077Z,1.57
2019-03-04T06:30:52.437Z,1.40
2019-03-04T06:33:19.816Z,2.43
2019-03-04T06:35:47.188Z,1.53
2019-03-04T06:38:14.629Z,1.60
2019-03-04T06:40:41.901Z,1.70
2019-03-04T06:43:09.309Z,2.10
2019-03-04T06:45:36.589Z,1.70
2019-03-04T06:48:04.334Z,1.60
2019-03-04T06:50:47.642Z,1.80
2019-03-04T06:53:19.410Z,1.50
2019-03-04T06:56:08.352Z,1.30
2019-03-04T06:58:39.808Z,1.43
2019-03-04T07:01:11.566Z,1.67
2019-03-04T07:03:45.948Z,2.00
2019-03-04T07:06:13.536Z,1.27
2019-03-04T07:09:11.582Z,1.57
2019-03-04T07:11:43.603Z,2.63
2019-03-04T07:14:10.975Z,2.27
2019-03-04T07:16:38.439Z,2.13
2019-03-04T07:19:08.948Z,1.70
2019-03-04T07:21:36.496Z,1.80
2019-03-04T07:24:04.130Z,1.80
2019-03-04T07:26:31.609Z,1.43
2019-03-04T07:28:58.969Z,1.13
2019-03-04T07:31:26.384Z,1.20
2019-03-04T07:33:53.797Z,1.13
2019-03-04T07:36:21.449Z,1.13
2019-03-04T07:38:54.585Z,1.80
2019-03-04T07:41:22.096Z,3.87
2019-03-04T07:43:49.769Z,5.37
2019-03-04T07:46:17.693Z,3.87
2019-03-04T07:48:44.941Z,2.13
2019-03-04T07:51:13.508Z,2.70
2019-03-04T07:53:46.448Z,2.80
2019-03-04T07:56:10.341Z,2.67
2019-03-04T07:58:37.583Z,3.07
2019-03-04T08:01:05.178Z,2.30
2019-03-04T08:03:32.441Z,2.57
2019-03-04T08:06:00.151Z,2.83
2019-03-04T08:08:27.632Z,1.83
2019-03-04T08:11:43.378Z,2.70
2019-03-04T08:14:10.666Z,2.70
2019-03-04T08:16:37.885Z,1.40
2019-03-04T08:19:05.126Z,1.30
2019-03-04T08:21:32.542Z,1.13
2019-03-04T08:23:59.834Z,1.43
2019-03-04T08:26:27.188Z,0.97
2019-03-04T08:28:54.575Z,1.30
2019-03-04T08:31:21.714Z,1.53
2019-03-04T08:33:49.065Z,1.20
2019-03-04T08:36:16.493Z,1.40
2019-03-04T08:38:43.630Z,2.00
2019-03-04T08:41:10.829Z,1.10
2019-03-04T08:43:38.096Z,3.87
2019-03-04T08:46:05.306Z,1.83
2019-03-04T08:48:32.713Z,1.00
2019-03-04T08:51:02.249Z,0.97
2019-03-04T08:53:31.014Z,2.37
2019-03-04T08:55:58.479Z,0.80
2019-03-04T08:58:25.675Z,1.00
2019-03-04T09:00:53.081Z,1.10
2019-03-04T09:03:20.384Z,1.43
2019-03-04T09:05:48.203Z,0.83
2019-03-04T09:08:15.703Z,0.90
2019-03-04T09:10:43.217Z,0.70
2019-03-04T09:13:10.532Z,1.30
2019-03-04T09:15:37.948Z,4.27
2019-03-04T09:18:05.326Z,2.80
2019-03-04T09:20:32.941Z,5.60
2019-03-04T09:23:00.358Z,0.80
2019-03-04T09:25:38.667Z,0.97
2019-03-04T09:28:06.053Z,1.73
2019-03-04T09:30:33.571Z,1.73
2019-03-04T09:33:00.882Z,0.90
2019-03-04T09:35:28.253Z,0.80
2019-03-04T09:37:56.173Z,0.90
2019-03-04T09:40:25.676Z,0.90
2019-03-04T09:42:53.267Z,0.80
2019-03-04T09:45:20.560Z,1.80
2019-03-04T09:47:47.978Z,0.47
2019-03-04T09:50:16.446Z,0.60
2019-03-04T09:52:44.033Z,0.57
2019-03-04T09:55:12.934Z,0.70
2019-03-04T09:57:40.650Z,0.40
2019-03-04T10:00:46.242Z,0.37
2019-03-04T10:03:43.628Z,0.57
2019-03-04T10:06:54.690Z,0.50
2019-03-04T10:09:48.172Z,0.50
2019-03-04T10:12:37.862Z,0.67
2019-03-04T10:15:20.965Z,0.70
2019-03-04T10:18:14.324Z,1.40
2019-03-04T10:21:24.065Z,5.07
2019-03-04T10:24:23.845Z,3.17
2019-03-04T10:27:20.914Z,4.57
2019-03-04T10:30:07.434Z,4.40
2019-03-04T10:33:11.077Z,4.23
2019-03-04T10:36:02.287Z,4.93
2019-03-04T10:38:48.728Z,8.57
2019-03-04T10:41:44.580Z,4.60
2019-03-04T10:44:37.863Z,7.20
2019-03-04T10:47:05.230Z,8.93
2019-03-04T10:49:34.453Z,6.40
2019-03-04T10:52:01.857Z,4.07
2019-03-04T10:54:29.175Z,2.40
2019-03-04T10:56:56.558Z,2.70
2019-03-04T10:59:23.801Z,2.30
2019-03-04T11:01:52.846Z,1.70
2019-03-04T11:04:20.661Z,1.70
2019-03-04T11:06:47.933Z,2.23
2019-03-04T11:09:15.187Z,1.57
2019-03-04T11:11:42.655Z,1.43
2019-03-04T11:14:10.196Z,1.20
2019-03-04T11:16:37.307Z,0.80
2019-03-04T11:19:05.667Z,2.80
2019-03-04T11:21:32.889Z,1.20
2019-03-04T11:24:00.514Z,0.87
2019-03-04T11:26:28.212Z,1.10
2019-03-04T11:28:55.466Z,2.30
2019-03-04T11:31:23.055Z,5.00
2019-03-04T11:33:50.432Z,2.30
2019-03-04T11:36:17.841Z,2.20
2019-03-04T11:38:47.323Z,1.03
2019-03-04T11:41:16.998Z,4.57
2019-03-04T11:43:44.689Z,1.07
2019-03-04T11:46:12.099Z,0.70
2019-03-04T11:48:39.763Z,0.80
2019-03-04T11:51:07.080Z,0.90
2019-03-04T11:53:34.627Z,1.63
2019-03-04T11:56:02.259Z,1.30
2019-03-04T11:58:29.575Z,0.80
2019-03-04T12:01:05.638Z,1.37
2019-03-04T12:03:32.866Z,1.67
2019-03-04T12:06:00.282Z,0.63
2019-03-04T12:08:27.561Z,1.10
2019-03-04T12:10:55.155Z,0.87
2019-03-04T12:13:22.556Z,1.07
2019-03-04T12:15:50.277Z,0.97
2019-03-04T12:18:17.753Z,0.83
2019-03-04T12:20:45.630Z,1.00
2019-03-04T12:23:14.115Z,1.00
2019-03-04T12:25:41.489Z,1.13
2019-03-04T12:28:08.930Z,1.40
2019-03-04T12:30:36.620Z,0.90
2019-03-04T12:33:04.638Z,1.40
2019-03-04T12:35:32.931Z,0.87
2019-03-04T12:38:01.052Z,0.70
2019-03-04T12:40:28.747Z,0.83
2019-03-04T12:42:55.869Z,0.90
2019-03-04T12:45:33.668Z,0.80
2019-03-04T12:47:52.617Z,1.73
2019-03-04T12:50:22.268Z,0.83
2019-03-04T12:52:49.484Z,0.70
2019-03-04T12:55:16.894Z,1.10
2019-03-04T12:57:44.244Z,1.00
2019-03-04T13:00:15.878Z,1.10
2019-03-04T13:02:44.087Z,1.07
2019-03-04T13:05:11.801Z,1.27
2019-03-04T13:07:39.204Z,1.93
2019-03-04T13:10:07.255Z,1.60
2019-03-04T13:12:34.483Z,1.60
2019-03-04T13:15:01.937Z,1.10
2019-03-04T13:17:29.395Z,0.90
2019-03-04T13:19:56.812Z,1.20
2019-03-04T13:22:24.252Z,1.07
2019-03-04T13:24:51.935Z,1.63
2019-03-04T13:27:23.712Z,1.60
2019-03-04T13:29:48.700Z,2.10
2019-03-04T13:32:16.258Z,1.20
2019-03-04T13:34:43.585Z,0.83
2019-03-04T13:37:10.990Z,1.30
2019-03-04T13:39:38.363Z,1.40
2019-03-04T13:42:05.467Z,1.93
2019-03-04T13:44:32.896Z,1.20
2019-03-04T13:47:00.050Z,1.93
2019-03-04T13:49:27.359Z,1.00
2019-03-04T13:51:55.842Z,1.10
2019-03-04T13:54:23.056Z,0.93
2019-03-04T13:56:50.476Z,1.20
2019-03-04T13:59:17.680Z,1.37
2019-03-04T14:01:45.001Z,0.57
2019-03-04T14:04:12.593Z,1.63
2019-03-04T14:06:39.869Z,0.60
2019-03-04T14:09:07.818Z,0.90
2019-03-04T14:11:36.909Z,0.77
2019-03-04T14:14:04.312Z,0.70
2019-03-04T14:16:32.696Z,1.00
2019-03-04T14:18:59.926Z,1.00
2019-03-04T14:21:27.501Z,0.80
2019-03-04T14:23:55.287Z,0.73
2019-03-04T14:26:22.518Z,0.87
2019-03-04T14:28:49.598Z,1.40
2019-03-04T14:31:16.858Z,0.73
2019-03-04T14:33:44.094Z,0.63
2019-03-04T14:36:11.481Z,0.80
2019-03-04T14:38:38.782Z,0.90
2019-03-04T14:41:06.097Z,0.83
2019-03-04T14:43:33.310Z,0.87
2019-03-04T14:46:00.713Z,0.60
2019-03-04T14:48:27.851Z,0.90
2019-03-04T14:50:55.459Z,0.70
2019-03-04T14:53:22.579Z,0.80
2019-03-04T14:55:50.115Z,0.77
2019-03-04T14:58:17.431Z,0.90
2019-03-04T15:00:47.733Z,0.50
2019-03-04T15:03:20.972Z,0.50
2019-03-04T15:05:44.497Z,0.40
2019-03-04T15:08:11.774Z,0.70
2019-03-04T15:10:39.087Z,0.97
2019-03-04T15:13:06.697Z,0.70
2019-03-04T15:15:33.899Z,1.00
2019-03-04T15:18:01.161Z,0.73
2019-03-04T15:20:29.326Z,1.07
2019-03-04T15:22:56.706Z,0.63
2019-03-04T15:25:26.695Z,0.90
2019-03-04T15:28:08.195Z,0.60
2019-03-04T15:30:37.847Z,1.53
2019-03-04T15:33:05.488Z,1.27
2019-03-04T15:35:32.770Z,1.23
2019-03-04T15:38:00.100Z,1.20
2019-03-04T15:40:27.344Z,0.73
2019-03-04T15:42:54.450Z,3.37
2019-03-04T15:45:21.778Z,1.00
2019-03-04T15:47:49.212Z,1.50
2019-03-04T15:50:16.682Z,1.00
2019-03-04T15:52:45.304Z,0.70
2019-03-04T15:55:12.897Z,4.13
2019-03-04T15:57:40.089Z,2.63
2019-03-04T16:00:09.201Z,3.93
2019-03-04T16:02:37.743Z,1.50
2019-03-04T16:05:06.546Z,10.53
2019-03-04T16:07:34.531Z,12.90
2019-03-04T16:10:02.040Z,1.83
2019-03-04T16:12:31.440Z,1.23
2019-03-04T16:14:58.817Z,1.33
2019-03-04T16:17:26.213Z,0.70
2019-03-04T16:19:56.702Z,0.60
2019-03-04T16:22:25.729Z,3.40
2019-03-04T16:24:53.554Z,1.10
2019-03-04T16:27:23.091Z,0.90
2019-03-04T16:29:50.261Z,0.70
2019-03-04T16:32:17.754Z,1.30
2019-03-04T16:34:45.143Z,0.90
2019-03-04T16:37:12.634Z,0.93
2019-03-04T16:39:39.908Z,0.90
2019-03-04T16:42:08.065Z,0.47
2019-03-04T16:44:35.465Z,0.70
2019-03-04T16:47:02.835Z,0.63
2019-03-04T16:49:30.590Z,1.03
2019-03-04T16:51:57.859Z,0.70
2019-03-04T16:54:25.526Z,0.93
2019-03-04T16:56:53.501Z,0.90
2019-03-04T16:59:20.799Z,1.10
2019-03-04T17:01:48.304Z,1.23
2019-03-04T17:04:16.626Z,0.77
2019-03-04T17:06:44.462Z,1.40
2019-03-04T17:09:18.740Z,1.43
2019-03-04T17:11:46.491Z,2.37
2019-03-04T17:14:13.638Z,3.70
2019-03-04T17:16:41.175Z,1.70
2019-03-04T17:19:09.615Z,0.83
2019-03-04T17:21:37.078Z,1.13
2019-03-04T17:24:04.542Z,0.90
2019-03-04T17:26:33.378Z,2.93
2019-03-04T17:29:01.186Z,0.40
2019-03-04T17:31:29.130Z,0.60
2019-03-04T17:33:56.975Z,0.57
2019-03-04T17:36:24.336Z,1.07
2019-03-04T17:38:52.001Z,0.10
2019-03-04T17:41:19.231Z,0.30
2019-03-04T17:43:46.773Z,0.70
2019-03-04T17:46:14.153Z,0.90
2019-03-04T17:48:42.077Z,1.70
2019-03-04T17:51:09.404Z,1.47
2019-03-04T17:53:37.046Z,4.17
2019-03-04T17:56:04.796Z,5.13
2019-03-04T17:58:32.069Z,14.83
2019-03-04T18:00:59.642Z,10.70
2019-03-04T18:03:26.959Z,4.43
2019-03-04T18:05:54.417Z,5.83
2019-03-04T18:08:22.092Z,3.53
2019-03-04T18:10:49.596Z,9.17
2019-03-04T18:13:16.939Z,9.30
2019-03-04T18:15:44.356Z,5.83
2019-03-04T18:18:13.680Z,8.13
2019-03-04T18:20:41.311Z,10.60
2019-03-04T18:23:08.787Z,3.20
2019-03-04T18:25:39.409Z,4.40
2019-03-04T18:28:11.445Z,2.40
2019-03-04T18:31:26.602Z,5.13
2019-03-04T18:34:23.481Z,2.53
2019-03-04T18:37:35.203Z,4.50
2019-03-04T18:40:51.626Z,14.50
2019-03-04T18:43:48.945Z,18.03
2019-03-04T18:46:58.189Z,62.13
2019-03-04T18:49:25.567Z,13.67
2019-03-04T18:51:52.807Z,29.30
2019-03-04T18:54:20.142Z,27.00
2019-03-04T18:56:50.170Z,10.20
2019-03-04T18:59:17.501Z,9.30
2019-03-04T19:01:45.074Z,10.37
2019-03-04T19:04:12.341Z,8.53
2019-03-04T19:06:40.554Z,5.10
2019-03-04T19:09:09.281Z,8.70
2019-03-04T19:11:38.478Z,12.33
2019-03-04T19:14:06.003Z,13.30
2019-03-04T19:16:33.450Z,9.33
2019-03-04T19:19:00.779Z,7.47
2019-03-04T19:21:28.247Z,8.73
2019-03-04T19:23:55.720Z,9.10
2019-03-04T19:26:23.201Z,2.20
2019-03-04T19:28:50.933Z,2.70
2019-03-04T19:31:21.529Z,7.73
2019-03-04T19:33:49.555Z,2.30
2019-03-04T19:36:17.011Z,1.30
2019-03-04T19:38:44.510Z,1.17
2019-03-04T19:41:12.668Z,2.93
2019-03-04T19:43:40.845Z,2.90
2019-03-04T19:46:08.527Z,4.90
2019-03-04T19:48:36.170Z,9.23
2019-03-04T19:51:03.603Z,4.17
2019-03-04T19:53:30.945Z,3.93
2019-03-04T19:55:58.328Z,1.90
2019-03-04T19:58:26.909Z,5.43
2019-03-04T20:00:54.474Z,1.23
2019-03-04T20:03:22.079Z,1.60
2019-03-04T20:05:49.395Z,3.73
2019-03-04T20:08:17.076Z,1.57
2019-03-04T20:10:44.954Z,2.13
2019-03-04T20:13:12.741Z,3.70
2019-03-04T20:15:40.871Z,9.43
2019-03-04T20:18:08.243Z,9.70
2019-03-04T20:20:35.686Z,19.93
2019-03-04T20:23:03.081Z,19.03
2019-03-04T20:25:31.357Z,12.60
2019-03-04T20:27:58.645Z,5.80
2019-03-04T20:30:26.250Z,5.97
2019-03-04T20:32:54.258Z,4.20
2019-03-04T20:35:22.494Z,1.70
2019-03-04T20:37:51.332Z,1.63
2019-03-04T20:40:18.555Z,1.07
2019-03-04T20:42:46.238Z,0.40
2019-03-04T20:45:15.072Z,0.60
2019-03-04T20:47:43.062Z,0.50
2019-03-04T20:50:14.031Z,0.60
2019-03-04T20:52:43.582Z,0.70
2019-03-04T20:55:11.666Z,1.10
2019-03-04T20:57:39.147Z,0.80
2019-03-04T21:00:10.752Z,0.30
2019-03-04T21:02:39.596Z,1.10
2019-03-04T21:05:09.900Z,0.83
2019-03-04T21:07:37.537Z,0.63
2019-03-04T21:10:06.729Z,0.87
2019-03-04T21:12:36.134Z,1.13
2019-03-04T21:15:05.032Z,0.73
2019-03-04T21:17:32.935Z,1.00
2019-03-04T21:20:00.385Z,1.97
2019-03-04T21:22:28.452Z,7.80
2019-03-04T21:24:58.138Z,1.07
2019-03-04T21:27:25.553Z,0.60
2019-03-04T21:30:38.411Z,0.73
2019-03-04T21:33:16.408Z,0.83
2019-03-04T21:36:23.904Z,0.73
2019-03-04T21:38:55.333Z,0.63
2019-03-04T21:41:37.065Z,1.00
2019-03-04T21:44:23.008Z,1.10
2019-03-04T21:47:01.437Z,1.30
2019-03-04T21:49:32.503Z,0.60
2019-03-04T21:52:23.750Z,1.53
2019-03-04T21:54:51.199Z,0.97
2019-03-04T21:57:25.865Z,1.23
2019-03-04T21:59:53.537Z,0.70
2019-03-04T22:02:48.621Z,0.90
2019-03-04T22:05:16.490Z,0.90
2019-03-04T22:07:45.565Z,1.00
2019-03-04T22:10:15.640Z,1.63
2019-03-04T22:12:44.585Z,1.57
2019-03-04T22:15:13.227Z,2.60
2019-03-04T22:17:40.869Z,0.70
2019-03-04T22:20:11.733Z,0.97
2019-03-04T22:22:40.600Z,0.70
2019-03-04T22:25:10.302Z,0.80
2019-03-04T22:27:38.949Z,0.70
2019-03-04T22:30:11.490Z,0.60
2019-03-04T22:32:39.219Z,0.63
2019-03-04T22:35:09.120Z,0.40
2019-03-04T22:37:37.015Z,0.57
2019-03-04T22:40:06.389Z,0.50
2019-03-04T22:42:35.386Z,0.60
2019-03-04T22:45:03.789Z,0.50
2019-03-04T22:47:33.484Z,0.50
2019-03-04T22:50:04.542Z,0.80
2019-03-04T22:52:36.199Z,0.70
2019-03-04T22:55:11.350Z,0.37
2019-03-04T22:57:39.024Z,0.40
2019-03-04T23:00:49.803Z,0.43
2019-03-04T23:03:18.672Z,0.50
2019-03-04T23:05:46.513Z,0.40
2019-03-04T23:08:17.769Z,0.57
2019-03-04T23:10:48.748Z,0.67
2019-03-04T23:13:38.540Z,0.37
2019-03-04T23:16:08.335Z,0.40
2019-03-04T23:18:36.842Z,0.30
2019-03-04T23:21:07.183Z,0.73
2019-03-04T23:23:34.600Z,0.50
2019-03-04T23:26:03.388Z,0.40
2019-03-04T23:28:32.284Z,0.50
2019-03-04T23:31:00.106Z,0.40
2019-03-04T23:33:29.826Z,0.60
2019-03-04T23:35:58.344Z,0.53
2019-03-04T23:38:25.897Z,0.30
2019-03-04T23:41:02.369Z,0.40
2019-03-04T23:43:34.346Z,1.80
2019-03-04T23:46:01.652Z,0.70
2019-03-04T23:48:30.179Z,0.50
2019-03-04T23:50:58.674Z,0.93
2019-03-04T23:53:26.567Z,0.60
2019-03-04T23:55:59.561Z,0.87
2019-03-04T23:58:29.339Z,1.40
